METAR Data
IDs: Format: Raw Decoded Include TAF

Data at: 2110 UTC 02 Aug 2021

EKCH 022050Z AUTO 26007KT 9999 BKN044/// 17/12 Q1010 NOSIG